Time;durP1;ratioP1;P1;durP2;ratioP2;P2;SDS_P1;SDS_P2;PMS_P1;PMS_P2;Temp;Humidity;BMP_temperature;BMP_pressure;BME280_temperature;BME280_humidity;BME280_pressure;Samples;Min_cycle;Max_cycle;Signal;HPM_P1;HPM_P2
2022/08/08 00:00:34;;;;;;;;;;;19.10;42.30;;;;;;4912006;29;19941;-92
2022/08/08 00:03:02;;;;;;;;;;;19.00;42.40;;;;;;4908970;29;19962;-92
2022/08/08 00:05:59;;;;;;;;;;;19.00;42.50;;;;;;4906707;29;19919;-91
2022/08/08 00:08:54;;;;;;;;;;;18.90;42.60;;;;;;4904261;29;19919;-91
2022/08/08 00:11:38;;;;;;;;;;;18.90;42.70;;;;;;4888625;29;19911;-91
2022/08/08 00:14:24;;;;;;;;;;;18.80;42.70;;;;;;4906133;29;19912;-91
2022/08/08 00:17:09;;;;;;;;;;;18.80;42.80;;;;;;4904418;29;19927;-91
2022/08/08 00:19:40;;;;;;;;;;;18.90;42.80;;;;;;4916690;29;19911;-91
2022/08/08 00:22:27;;;;;;;;;;;18.80;42.80;;;;;;4906806;29;19920;-91
2022/08/08 00:24:59;;;;;;;;;;;18.80;42.90;;;;;;4908391;29;20303;-90
2022/08/08 00:27:25;;;;;;;;;;;18.80;42.90;;;;;;4888910;29;19946;-91
2022/08/08 00:29:59;;;;;;;;;;;18.80;43.00;;;;;;4888658;29;19915;-90
2022/08/08 00:32:27;;;;;;;;;;;18.80;43.00;;;;;;4888174;29;19926;-91
2022/08/08 00:35:12;;;;;;;;;;;18.80;43.00;;;;;;4888667;29;19916;-91
2022/08/08 00:37:41;;;;;;;;;;;18.80;43.00;;;;;;4888331;29;19924;-90
2022/08/08 00:40:12;;;;;;;;;;;18.80;43.00;;;;;;4903219;29;19895;-91
2022/08/08 00:42:57;;;;;;;;;;;18.80;43.10;;;;;;4903215;29;19919;-91
2022/08/08 00:45:42;;;;;;;;;;;18.80;43.10;;;;;;4922107;29;19977;-90
2022/08/08 00:48:43;;;;;;;;;;;18.70;43.20;;;;;;4906342;29;20280;-91
2022/08/08 00:51:22;;;;;;;;;;;18.70;43.30;;;;;;4903594;29;20357;-91
2022/08/08 00:54:06;;;;;;;;;;;18.70;43.30;;;;;;4904088;29;19926;-91
2022/08/08 00:56:47;;;;;;;;;;;18.70;43.50;;;;;;4922555;29;20049;-91
2022/08/08 00:59:44;;;;;;;;;;;18.70;43.40;;;;;;4914458;29;19930;-91
2022/08/08 01:02:28;;;;;;;;;;;18.70;43.50;;;;;;4904412;29;19911;-91
2022/08/08 01:05:05;;;;;;;;;;;18.50;43.80;;;;;;4904012;29;19927;-91
2022/08/08 01:07:46;;;;;;;;;;;18.40;43.80;;;;;;4904197;29;20360;-90
2022/08/08 01:10:20;;;;;;;;;;;18.40;44.00;;;;;;4887546;29;19916;-91
2022/08/08 01:13:00;;;;;;;;;;;18.30;44.00;;;;;;4903559;29;19922;-91
2022/08/08 01:15:44;;;;;;;;;;;18.30;44.10;;;;;;4906035;29;19919;-91
2022/08/08 01:18:16;;;;;;;;;;;18.30;44.10;;;;;;4922912;29;20380;-91
2022/08/08 01:20:48;;;;;;;;;;;18.20;44.20;;;;;;4922724;29;19922;-91
2022/08/08 01:23:33;;;;;;;;;;;18.20;44.40;;;;;;4905558;29;19935;-91
2022/08/08 01:26:10;;;;;;;;;;;18.10;44.60;;;;;;4922164;29;20399;-91
2022/08/08 01:28:54;;;;;;;;;;;18.10;44.80;;;;;;4906012;29;19927;-91
2022/08/08 01:31:38;;;;;;;;;;;18.00;44.70;;;;;;4921296;29;19927;-91
2022/08/08 01:34:22;;;;;;;;;;;18.00;44.70;;;;;;4922662;29;20460;-91
2022/08/08 01:36:57;;;;;;;;;;;18.00;44.80;;;;;;4922349;29;20014;-91
2022/08/08 01:39:29;;;;;;;;;;;18.00;44.90;;;;;;4922457;29;19923;-91
2022/08/08 01:42:14;;;;;;;;;;;17.90;45.00;;;;;;4923552;29;19911;-91
2022/08/08 01:44:45;;;;;;;;;;;17.90;45.00;;;;;;4907387;29;19919;-91
2022/08/08 01:47:11;;;;;;;;;;;17.80;45.10;;;;;;4925203;29;19915;-90
2022/08/08 01:49:42;;;;;;;;;;;17.80;45.40;;;;;;4915196;29;20341;-91
2022/08/08 01:52:07;;;;;;;;;;;17.80;45.40;;;;;;4907853;29;19912;-91
2022/08/08 01:54:52;;;;;;;;;;;17.80;45.50;;;;;;4906364;29;19930;-91
2022/08/08 01:57:24;;;;;;;;;;;17.80;45.40;;;;;;4906542;29;19916;-91
2022/08/08 02:00:01;;;;;;;;;;;17.80;45.40;;;;;;4919253;29;19919;-91
2022/08/08 02:02:35;;;;;;;;;;;17.80;45.30;;;;;;4925206;29;19918;-91
2022/08/08 02:05:11;;;;;;;;;;;17.70;45.40;;;;;;4925235;29;19919;-91
2022/08/08 02:07:36;;;;;;;;;;;17.70;45.50;;;;;;4908412;29;19980;-91
2022/08/08 02:10:02;;;;;;;;;;;17.70;45.50;;;;;;4911866;29;19927;-91
2022/08/08 02:12:41;;;;;;;;;;;17.70;45.50;;;;;;4907723;29;19919;-91
2022/08/08 02:15:11;;;;;;;;;;;17.70;45.40;;;;;;4905456;29;19919;-91
2022/08/08 02:17:59;;;;;;;;;;;17.70;45.50;;;;;;4908875;29;19954;-91
2022/08/08 02:20:31;;;;;;;;;;;17.70;45.50;;;;;;4893128;29;20006;-91
2022/08/08 02:23:12;;;;;;;;;;;17.80;45.40;;;;;;4889244;29;20360;-91
2022/08/08 02:25:43;;;;;;;;;;;17.80;45.40;;;;;;4905484;29;19923;-91
2022/08/08 02:28:20;;;;;;;;;;;17.80;45.40;;;;;;4908059;29;19918;-91
2022/08/08 02:30:52;;;;;;;;;;;17.90;45.30;;;;;;4892108;29;19915;-91
2022/08/08 02:33:28;;;;;;;;;;;17.90;45.30;;;;;;4904881;29;19963;-91
2022/08/08 02:36:00;;;;;;;;;;;17.80;45.30;;;;;;4903487;29;19958;-91
2022/08/08 02:38:33;;;;;;;;;;;17.80;45.30;;;;;;4923337;29;19919;-91
2022/08/08 02:41:07;;;;;;;;;;;17.80;45.40;;;;;;4893564;29;19945;-91
2022/08/08 02:43:33;;;;;;;;;;;17.80;45.50;;;;;;4915520;29;19919;-91
2022/08/08 02:46:01;;;;;;;;;;;17.70;45.50;;;;;;4923966;29;19958;-91
2022/08/08 02:48:50;;;;;;;;;;;17.70;45.70;;;;;;4923934;29;19926;-91
2022/08/08 02:51:30;;;;;;;;;;;17.70;45.80;;;;;;4923887;29;19966;-91
2022/08/08 02:54:20;;;;;;;;;;;17.70;46.10;;;;;;4906978;29;19919;-90
2022/08/08 02:56:51;;;;;;;;;;;17.60;46.10;;;;;;4907746;29;19922;-90
2022/08/08 02:59:23;;;;;;;;;;;17.50;46.10;;;;;;4923440;29;19920;-91
2022/08/08 03:02:07;;;;;;;;;;;17.40;46.20;;;;;;4923979;29;19911;-91
2022/08/08 03:04:52;;;;;;;;;;;17.40;46.40;;;;;;4923006;29;19923;-90
2022/08/08 03:07:26;;;;;;;;;;;17.30;46.50;;;;;;4923635;29;19912;-90
2022/08/08 03:10:10;;;;;;;;;;;17.20;46.60;;;;;;4923912;29;19919;-90
2022/08/08 03:12:55;;;;;;;;;;;17.20;46.80;;;;;;4913209;29;19919;-90
2022/08/08 03:15:26;;;;;;;;;;;17.20;47.00;;;;;;4905801;29;19924;-91
2022/08/08 03:18:08;;;;;;;;;;;17.10;47.10;;;;;;4918686;29;19919;-90
2022/08/08 03:20:51;;;;;;;;;;;17.10;47.00;;;;;;4925240;29;19923;-91
2022/08/08 03:23:16;;;;;;;;;;;17.10;46.90;;;;;;4906599;29;19911;-91
2022/08/08 03:25:44;;;;;;;;;;;17.10;47.00;;;;;;4903899;29;19915;-91
2022/08/08 03:28:13;;;;;;;;;;;17.10;47.00;;;;;;4919344;29;20419;-91
2022/08/08 03:30:41;;;;;;;;;;;17.00;47.10;;;;;;4907747;29;20316;-90
2022/08/08 03:33:18;;;;;;;;;;;17.00;47.20;;;;;;4908610;29;22223;-91
2022/08/08 03:35:45;;;;;;;;;;;17.00;47.30;;;;;;4908951;29;19927;-91
2022/08/08 03:38:10;;;;;;;;;;;16.90;47.30;;;;;;4908056;29;19915;-90
2022/08/08 03:40:36;;;;;;;;;;;16.90;47.30;;;;;;4908273;29;19980;-91
2022/08/08 03:43:01;;;;;;;;;;;17.00;47.30;;;;;;4907719;29;19919;-90
2022/08/08 03:45:28;;;;;;;;;;;17.00;47.30;;;;;;4906966;29;20365;-91
2022/08/08 03:47:57;;;;;;;;;;;17.00;47.30;;;;;;4907382;29;19918;-90
2022/08/08 03:50:23;;;;;;;;;;;16.90;47.40;;;;;;4925095;29;19970;-91
2022/08/08 03:52:49;;;;;;;;;;;16.90;47.50;;;;;;4907694;29;19923;-91
2022/08/08 03:55:16;;;;;;;;;;;16.90;47.50;;;;;;4906494;29;19915;-89
2022/08/08 03:57:52;;;;;;;;;;;16.90;47.60;;;;;;4924375;29;20013;-90
2022/08/08 04:00:19;;;;;;;;;;;16.80;47.70;;;;;;4923862;29;19916;-90
2022/08/08 04:03:14;;;;;;;;;;;16.80;47.80;;;;;;4912031;29;19923;-91
2022/08/08 04:05:39;;;;;;;;;;;16.80;47.90;;;;;;4885533;29;19919;-90
2022/08/08 04:08:06;;;;;;;;;;;16.80;48.00;;;;;;4904804;29;19912;-90
2022/08/08 04:10:32;;;;;;;;;;;17.00;48.10;;;;;;4923284;29;19920;-90
2022/08/08 04:12:58;;;;;;;;;;;17.00;48.30;;;;;;4894092;29;19912;-90
2022/08/08 04:15:24;;;;;;;;;;;17.10;48.50;;;;;;4888673;29;19922;-89
2022/08/08 04:17:49;;;;;;;;;;;17.20;48.70;;;;;;4900685;29;19921;-91
2022/08/08 04:20:15;;;;;;;;;;;17.30;48.90;;;;;;4907787;29;19926;-91
2022/08/08 04:22:41;;;;;;;;;;;17.40;49.20;;;;;;4908229;29;19923;-91
2022/08/08 04:25:07;;;;;;;;;;;17.60;49.40;;;;;;4907981;29;19966;-91
2022/08/08 04:27:33;;;;;;;;;;;17.80;49.60;;;;;;4907705;29;19915;-90
2022/08/08 04:30:00;;;;;;;;;;;17.90;49.70;;;;;;4907599;29;19910;-91
2022/08/08 04:32:26;;;;;;;;;;;18.20;49.90;;;;;;4924935;29;20046;-90
2022/08/08 04:34:51;;;;;;;;;;;18.40;50.00;;;;;;4906651;29;20381;-90
2022/08/08 04:37:17;;;;;;;;;;;18.60;50.10;;;;;;4907527;29;19915;-90
2022/08/08 04:39:43;;;;;;;;;;;18.90;50.20;;;;;;4909157;29;19974;-91
2022/08/08 04:42:09;;;;;;;;;;;19.20;50.30;;;;;;4907707;29;19978;-90
2022/08/08 04:44:34;;;;;;;;;;;19.60;50.40;;;;;;4907860;29;20363;-90
2022/08/08 04:47:00;;;;;;;;;;;19.90;50.30;;;;;;4924248;29;19940;-90
2022/08/08 04:49:26;;;;;;;;;;;20.30;50.20;;;;;;4908193;29;19952;-90
2022/08/08 04:51:51;;;;;;;;;;;20.60;50.10;;;;;;4907480;29;20288;-90
2022/08/08 04:54:17;;;;;;;;;;;21.00;50.00;;;;;;4924484;29;19926;-90
2022/08/08 04:56:42;;;;;;;;;;;21.40;49.90;;;;;;4907357;29;19960;-90
2022/08/08 04:59:07;;;;;;;;;;;21.90;49.60;;;;;;4930579;29;19926;-90
2022/08/08 05:01:33;;;;;;;;;;;22.30;49.30;;;;;;4933180;29;19899;-90
2022/08/08 05:03:59;;;;;;;;;;;22.70;48.90;;;;;;4916290;29;19935;-90
2022/08/08 05:06:24;;;;;;;;;;;23.10;48.40;;;;;;4913202;29;19919;-91
2022/08/08 05:08:53;;;;;;;;;;;23.50;47.90;;;;;;4911479;29;19930;-90
2022/08/08 05:11:19;;;;;;;;;;;24.00;47.50;;;;;;4890296;29;19915;-90
2022/08/08 05:13:44;;;;;;;;;;;24.40;46.80;;;;;;4904587;29;20018;-90
2022/08/08 05:16:10;;;;;;;;;;;24.80;46.40;;;;;;4904702;29;19985;-91
2022/08/08 05:18:35;;;;;;;;;;;25.30;45.80;;;;;;4922578;29;19915;-91
2022/08/08 05:21:02;;;;;;;;;;;25.70;45.20;;;;;;4907840;29;19919;-91
2022/08/08 05:23:27;;;;;;;;;;;26.00;44.30;;;;;;4907470;29;19911;-91
2022/08/08 05:25:53;;;;;;;;;;;26.40;43.50;;;;;;4903640;29;19931;-91
2022/08/08 05:28:19;;;;;;;;;;;26.70;43.10;;;;;;4920576;29;19911;-91
2022/08/08 05:30:45;;;;;;;;;;;27.10;42.40;;;;;;4906078;29;19986;-91
2022/08/08 05:33:11;;;;;;;;;;;27.50;41.80;;;;;;4920475;29;19938;-90
2022/08/08 05:35:40;;;;;;;;;;;27.80;41.10;;;;;;4915286;29;19922;-91
2022/08/08 05:38:06;;;;;;;;;;;28.20;40.60;;;;;;4905193;29;20279;-91
2022/08/08 05:40:32;;;;;;;;;;;28.50;39.90;;;;;;4905424;29;20280;-92
2022/08/08 05:43:03;;;;;;;;;;;28.90;39.30;;;;;;4910222;29;19975;-92
2022/08/08 05:45:35;;;;;;;;;;;29.30;38.50;;;;;;4906999;29;20367;-92
2022/08/08 05:48:01;;;;;;;;;;;29.60;37.80;;;;;;4905963;29;19919;-91
2022/08/08 05:50:28;;;;;;;;;;;29.90;37.20;;;;;;4923464;29;19918;-92
2022/08/08 05:52:54;;;;;;;;;;;30.30;36.80;;;;;;4923378;29;20043;-92
2022/08/08 05:55:19;;;;;;;;;;;30.50;36.20;;;;;;4906789;29;20021;-91
2022/08/08 05:57:46;;;;;;;;;;;30.80;35.80;;;;;;4906018;29;19923;-92
2022/08/08 06:00:11;;;;;;;;;;;31.10;35.30;;;;;;4906801;29;19954;-91
2022/08/08 06:05:31;;;;;;;;;;;31.80;34.20;;;;;;4922229;29;20003;-91
2022/08/08 06:07:57;;;;;;;;;;;32.10;33.90;;;;;;4906086;29;19919;-89
2022/08/08 06:10:22;;;;;;;;;;;32.50;33.60;;;;;;4920682;29;20475;-88
2022/08/08 06:12:49;;;;;;;;;;;32.90;33.10;;;;;;4903251;29;19900;-88
2022/08/08 06:15:16;;;;;;;;;;;33.30;32.50;;;;;;4919195;29;20346;-88
2022/08/08 06:17:41;;;;;;;;;;;33.70;31.60;;;;;;4901967;29;19945;-88
2022/08/08 06:20:11;;;;;;;;;;;34.00;31.00;;;;;;4919370;29;19911;-89
2022/08/08 06:22:38;;;;;;;;;;;34.30;30.30;;;;;;4920365;29;19919;-89
2022/08/08 06:25:08;;;;;;;;;;;34.60;30.10;;;;;;4918938;29;19915;-89
2022/08/08 06:27:53;;;;;;;;;;;35.00;29.90;;;;;;4911148;29;19943;-90
2022/08/08 06:30:20;;;;;;;;;;;35.30;29.20;;;;;;4940851;29;19919;-89
2022/08/08 06:32:53;;;;;;;;;;;35.70;28.80;;;;;;4931119;29;19911;-89
2022/08/08 06:35:22;;;;;;;;;;;36.00;28.40;;;;;;4907551;29;19943;-89
2022/08/08 06:37:51;;;;;;;;;;;36.30;27.70;;;;;;4923622;29;19926;-87
2022/08/08 06:40:17;;;;;;;;;;;36.60;27.20;;;;;;4922889;29;20413;-87
2022/08/08 06:42:46;;;;;;;;;;;36.80;26.50;;;;;;4904644;29;19923;-88
2022/08/08 06:45:12;;;;;;;;;;;37.00;25.80;;;;;;4904920;29;19923;-88
2022/08/08 06:47:37;;;;;;;;;;;37.20;25.90;;;;;;4904673;29;20009;-88
2022/08/08 06:50:04;;;;;;;;;;;37.50;25.50;;;;;;4922207;29;19990;-87
2022/08/08 06:52:30;;;;;;;;;;;37.80;24.90;;;;;;4902617;29;20005;-85
2022/08/08 06:54:57;;;;;;;;;;;38.00;24.40;;;;;;4902770;29;19927;-86
2022/08/08 06:57:23;;;;;;;;;;;38.30;24.00;;;;;;4895319;29;20163;-85
2022/08/08 06:59:50;;;;;;;;;;;38.30;23.30;;;;;;4901482;29;19950;-86
2022/08/08 07:02:23;;;;;;;;;;;38.60;23.00;;;;;;4910338;29;19947;-86
2022/08/08 07:04:48;;;;;;;;;;;38.70;22.50;;;;;;4903966;29;19930;-86
2022/08/08 07:07:18;;;;;;;;;;;38.80;22.50;;;;;;4918742;29;19911;-86
2022/08/08 07:09:53;;;;;;;;;;;39.10;22.40;;;;;;4921262;29;19919;-85
2022/08/08 07:12:23;;;;;;;;;;;39.30;22.20;;;;;;4920758;29;19926;-85
2022/08/08 07:14:52;;;;;;;;;;;39.50;21.80;;;;;;4920941;29;20280;-86
2022/08/08 07:17:19;;;;;;;;;;;39.70;21.40;;;;;;4900536;29;20010;-85
2022/08/08 07:20:00;;;;;;;;;;;39.80;21.10;;;;;;4903183;29;19919;-84
2022/08/08 07:22:35;;;;;;;;;;;39.70;21.00;;;;;;4897079;29;19916;-84
2022/08/08 07:25:02;;;;;;;;;;;39.80;20.80;;;;;;4915135;29;20455;-84
2022/08/08 07:27:34;;;;;;;;;;;39.90;20.90;;;;;;4898193;29;19916;-85
2022/08/08 07:30:00;;;;;;;;;;;40.10;20.80;;;;;;4883256;29;19975;-85
2022/08/08 07:32:26;;;;;;;;;;;40.20;20.90;;;;;;4909381;29;19923;-85
2022/08/08 07:34:51;;;;;;;;;;;40.50;20.70;;;;;;4919299;29;19923;-84
2022/08/08 07:37:21;;;;;;;;;;;40.60;20.50;;;;;;4917836;29;19933;-84
2022/08/08 07:39:47;;;;;;;;;;;40.80;20.30;;;;;;4916970;29;19959;-84
2022/08/08 07:42:16;;;;;;;;;;;40.90;20.10;;;;;;4917954;29;19941;-84
2022/08/08 07:44:49;;;;;;;;;;;41.00;20.20;;;;;;4898805;29;20009;-84
2022/08/08 07:47:15;;;;;;;;;;;41.20;19.80;;;;;;4909028;29;20010;-84
2022/08/08 07:49:40;;;;;;;;;;;41.30;19.50;;;;;;4895140;29;19983;-84
2022/08/08 07:52:11;;;;;;;;;;;41.30;19.00;;;;;;4894429;29;19931;-84
2022/08/08 07:54:42;;;;;;;;;;;41.40;18.70;;;;;;4894649;29;20311;-84
2022/08/08 07:57:33;;;;;;;;;;;41.50;19.00;;;;;;4893279;29;19926;-84
2022/08/08 08:00:05;;;;;;;;;;;41.70;18.80;;;;;;4880978;29;19923;-84
2022/08/08 08:02:51;;;;;;;;;;;41.70;18.90;;;;;;4881527;29;19919;-84
2022/08/08 08:05:19;;;;;;;;;;;41.70;18.60;;;;;;4870504;29;20004;-84
2022/08/08 08:07:46;;;;;;;;;;;41.70;18.60;;;;;;4904173;29;20226;-85
2022/08/08 08:10:14;;;;;;;;;;;41.90;18.80;;;;;;4893672;29;19958;-85
2022/08/08 08:12:44;;;;;;;;;;;42.00;17.90;;;;;;4888490;29;20296;-84
2022/08/08 08:15:10;;;;;;;;;;;41.70;17.90;;;;;;4895102;29;19924;-85
2022/08/08 08:17:41;;;;;;;;;;;41.30;17.90;;;;;;4895008;29;19923;-85
2022/08/08 08:20:07;;;;;;;;;;;41.30;17.80;;;;;;4914393;29;19919;-85
2022/08/08 08:22:32;;;;;;;;;;;41.20;18.00;;;;;;4916571;29;20009;-84
2022/08/08 08:24:58;;;;;;;;;;;41.10;18.10;;;;;;4889983;29;20397;-86
2022/08/08 08:27:24;;;;;;;;;;;40.90;18.00;;;;;;4909415;29;19921;-86
2022/08/08 08:29:49;;;;;;;;;;;40.70;18.10;;;;;;4916750;29;19955;-85
2022/08/08 08:32:15;;;;;;;;;;;40.60;18.40;;;;;;4908921;29;20683;-85
2022/08/08 08:34:40;;;;;;;;;;;40.70;18.60;;;;;;4897372;29;19991;-85
2022/08/08 08:37:06;;;;;;;;;;;40.80;18.40;;;;;;4902165;29;19923;-86
2022/08/08 08:39:31;;;;;;;;;;;40.90;18.50;;;;;;4917128;29;20438;-85
2022/08/08 08:41:57;;;;;;;;;;;41.20;18.40;;;;;;4915071;29;19998;-86
2022/08/08 08:44:26;;;;;;;;;;;41.40;18.20;;;;;;4920146;29;19923;-86
2022/08/08 08:46:52;;;;;;;;;;;41.80;17.90;;;;;;4912814;29;19916;-85
2022/08/08 08:49:18;;;;;;;;;;;42.00;17.70;;;;;;4900357;29;19963;-85
2022/08/08 08:51:45;;;;;;;;;;;42.20;17.30;;;;;;4916388;29;20010;-86
2022/08/08 08:54:11;;;;;;;;;;;42.30;17.20;;;;;;4905765;29;19911;-88
2022/08/08 08:56:37;;;;;;;;;;;42.40;16.70;;;;;;4914430;29;20395;-86
2022/08/08 08:59:03;;;;;;;;;;;42.40;17.00;;;;;;4897676;29;20014;-85
2022/08/08 09:01:36;;;;;;;;;;;42.60;16.90;;;;;;4899336;29;19923;-84
2022/08/08 09:04:07;;;;;;;;;;;42.80;17.00;;;;;;4905311;29;19942;-85
2022/08/08 09:06:36;;;;;;;;;;;43.10;17.00;;;;;;4917066;29;19961;-84
2022/08/08 09:09:21;;;;;;;;;;;43.30;17.00;;;;;;4909300;29;19911;-85
2022/08/08 09:11:47;;;;;;;;;;;43.50;16.30;;;;;;4910384;29;19919;-85
2022/08/08 09:14:13;;;;;;;;;;;43.50;16.60;;;;;;4888998;29;19922;-85
2022/08/08 09:16:38;;;;;;;;;;;43.70;16.20;;;;;;4906697;29;19941;-86
2022/08/08 09:19:04;;;;;;;;;;;43.80;16.50;;;;;;4883922;29;19935;-85
2022/08/08 09:21:30;;;;;;;;;;;44.00;16.20;;;;;;4905011;29;19923;-85
2022/08/08 09:23:57;;;;;;;;;;;44.20;16.00;;;;;;4898551;29;19911;-85
2022/08/08 09:26:31;;;;;;;;;;;44.20;16.10;;;;;;4890634;29;19966;-85
2022/08/08 09:28:56;;;;;;;;;;;44.30;15.20;;;;;;4897927;29;20356;-85
2022/08/08 09:31:40;;;;;;;;;;;44.00;15.00;;;;;;4909521;29;19978;-86
2022/08/08 09:34:07;;;;;;;;;;;43.70;15.50;;;;;;4897622;29;19938;-84
2022/08/08 09:36:35;;;;;;;;;;;43.70;15.80;;;;;;4885883;29;19918;-85
2022/08/08 09:39:03;;;;;;;;;;;43.80;15.60;;;;;;4888554;29;20399;-86
2022/08/08 09:41:28;;;;;;;;;;;43.90;15.70;;;;;;4906876;29;19919;-85
2022/08/08 09:43:58;;;;;;;;;;;44.20;15.90;;;;;;4897519;29;19920;-85
2022/08/08 09:46:23;;;;;;;;;;;44.50;15.90;;;;;;4912560;29;19970;-85
2022/08/08 09:48:49;;;;;;;;;;;44.70;15.50;;;;;;4918714;29;20364;-86
2022/08/08 09:51:18;;;;;;;;;;;44.80;15.20;;;;;;4897076;29;19958;-85
2022/08/08 09:53:48;;;;;;;;;;;44.70;14.80;;;;;;4908362;29;19919;-85
2022/08/08 09:56:14;;;;;;;;;;;44.40;14.60;;;;;;4917049;29;20387;-85
2022/08/08 09:58:43;;;;;;;;;;;44.20;14.70;;;;;;4895132;29;20395;-85
2022/08/08 10:01:09;;;;;;;;;;;44.00;15.00;;;;;;4905830;29;19919;-85
2022/08/08 10:03:35;;;;;;;;;;;43.90;15.20;;;;;;4900451;29;19915;-85
2022/08/08 10:06:11;;;;;;;;;;;44.00;14.90;;;;;;4891273;29;19934;-85
2022/08/08 10:08:42;;;;;;;;;;;43.70;15.00;;;;;;4916338;29;20003;-85
2022/08/08 10:11:07;;;;;;;;;;;43.60;15.20;;;;;;4897936;29;19919;-85
2022/08/08 10:13:33;;;;;;;;;;;43.90;15.20;;;;;;4919588;29;20368;-85
2022/08/08 10:15:59;;;;;;;;;;;44.10;15.00;;;;;;4923048;29;19931;-85
2022/08/08 10:18:26;;;;;;;;;;;44.20;15.00;;;;;;4901837;29;19934;-85
2022/08/08 10:20:53;;;;;;;;;;;44.30;15.10;;;;;;4919386;29;19971;-85
2022/08/08 10:23:23;;;;;;;;;;;44.50;15.00;;;;;;4919240;29;19981;-86
2022/08/08 10:25:49;;;;;;;;;;;44.70;15.00;;;;;;4924432;29;20375;-86
2022/08/08 10:28:15;;;;;;;;;;;44.70;14.70;;;;;;4904633;29;19915;-85
2022/08/08 10:30:52;;;;;;;;;;;44.80;14.80;;;;;;4915276;29;19923;-86
2022/08/08 10:33:31;;;;;;;;;;;44.80;14.50;;;;;;4918776;29;19918;-85
2022/08/08 10:36:03;;;;;;;;;;;44.90;14.30;;;;;;4898415;29;19934;-86
2022/08/08 10:38:31;;;;;;;;;;;44.70;14.20;;;;;;4913443;29;19923;-86
2022/08/08 10:41:00;;;;;;;;;;;44.60;14.20;;;;;;4917561;29;19963;-85
2022/08/08 10:43:35;;;;;;;;;;;44.70;14.40;;;;;;4918826;29;19915;-85
2022/08/08 10:46:01;;;;;;;;;;;45.10;14.40;;;;;;4909211;29;19927;-85
2022/08/08 10:48:30;;;;;;;;;;;45.30;14.00;;;;;;4926157;29;19923;-85
2022/08/08 10:50:56;;;;;;;;;;;45.10;13.90;;;;;;4911186;29;20288;-85
2022/08/08 10:53:33;;;;;;;;;;;45.00;14.10;;;;;;4888396;29;19912;-86
2022/08/08 10:55:58;;;;;;;;;;;45.20;14.00;;;;;;4901500;29;20010;-85
2022/08/08 10:58:27;;;;;;;;;;;45.30;14.00;;;;;;4885443;29;20010;-86
2022/08/08 11:00:52;;;;;;;;;;;45.50;14.20;;;;;;4916945;29;19930;-87
2022/08/08 11:03:18;;;;;;;;;;;45.80;14.00;;;;;;4900259;29;19915;-85
2022/08/08 11:05:50;;;;;;;;;;;46.00;13.80;;;;;;4888523;29;19956;-85
2022/08/08 11:08:23;;;;;;;;;;;46.30;13.70;;;;;;4899564;29;20424;-86
2022/08/08 11:10:59;;;;;;;;;;;46.40;13.70;;;;;;4894184;29;19930;-86
2022/08/08 11:13:25;;;;;;;;;;;46.70;13.80;;;;;;4900932;29;19927;-86
2022/08/08 11:15:53;;;;;;;;;;;47.10;13.90;;;;;;4907823;29;20007;-86
2022/08/08 11:18:19;;;;;;;;;;;47.40;13.60;;;;;;4911477;29;20428;-86
2022/08/08 11:20:46;;;;;;;;;;;47.50;12.90;;;;;;4910410;29;19990;-86
2022/08/08 11:23:12;;;;;;;;;;;47.30;12.90;;;;;;4890118;29;19923;-85
2022/08/08 11:25:39;;;;;;;;;;;47.30;12.70;;;;;;4910856;29;19926;-86
2022/08/08 11:28:05;;;;;;;;;;;47.10;12.80;;;;;;4901964;29;19951;-87
2022/08/08 11:30:32;;;;;;;;;;;47.20;13.10;;;;;;4911255;29;19924;-86
2022/08/08 11:33:02;;;;;;;;;;;47.40;13.20;;;;;;4916592;29;19915;-86
2022/08/08 11:35:27;;;;;;;;;;;47.50;12.90;;;;;;4901802;29;19924;-85
2022/08/08 11:37:53;;;;;;;;;;;47.30;12.80;;;;;;4917801;29;19942;-86
2022/08/08 11:40:19;;;;;;;;;;;46.90;12.50;;;;;;4918347;29;19923;-86
2022/08/08 11:42:45;;;;;;;;;;;46.50;12.80;;;;;;4917866;29;20146;-85
2022/08/08 11:45:11;;;;;;;;;;;46.40;13.10;;;;;;4918846;29;20397;-84
2022/08/08 11:47:37;;;;;;;;;;;46.70;13.10;;;;;;4901845;29;20022;-84
2022/08/08 11:50:04;;;;;;;;;;;46.80;13.20;;;;;;4918392;29;20360;-85
2022/08/08 11:52:31;;;;;;;;;;;47.00;13.00;;;;;;4902054;29;19919;-85
2022/08/08 11:54:56;;;;;;;;;;;47.00;13.10;;;;;;4917406;29;20367;-84
2022/08/08 11:57:26;;;;;;;;;;;47.10;13.10;;;;;;4905200;29;19923;-84
2022/08/08 12:00:03;;;;;;;;;;;47.10;13.00;;;;;;4901136;29;20384;-84
2022/08/08 12:02:29;;;;;;;;;;;47.10;13.00;;;;;;4903786;29;19923;-85
2022/08/08 12:05:09;;;;;;;;;;;47.10;12.80;;;;;;4882958;29;20026;-84
2022/08/08 12:07:43;;;;;;;;;;;46.80;12.70;;;;;;4908654;29;19919;-84
2022/08/08 12:10:10;;;;;;;;;;;46.40;12.80;;;;;;4902559;29;20373;-84
2022/08/08 12:12:39;;;;;;;;;;;45.80;12.90;;;;;;4898648;29;19922;-85
2022/08/08 12:15:05;;;;;;;;;;;45.40;12.90;;;;;;4917482;29;20040;-84
2022/08/08 12:17:32;;;;;;;;;;;45.40;13.10;;;;;;4899850;29;19923;-84
2022/08/08 12:19:57;;;;;;;;;;;45.40;13.00;;;;;;4917536;29;19923;-85
2022/08/08 12:22:22;;;;;;;;;;;45.30;12.80;;;;;;4907864;29;20413;-84
2022/08/08 12:24:48;;;;;;;;;;;45.00;12.90;;;;;;4910456;29;19923;-84
2022/08/08 12:27:17;;;;;;;;;;;45.00;13.20;;;;;;4913240;29;19923;-84
2022/08/08 12:29:52;;;;;;;;;;;45.20;13.30;;;;;;4893267;29;19927;-84
2022/08/08 12:32:18;;;;;;;;;;;45.40;13.00;;;;;;4906884;29;19919;-85
2022/08/08 12:35:00;;;;;;;;;;;45.50;13.00;;;;;;4915109;29;19951;-85
2022/08/08 12:37:28;;;;;;;;;;;45.70;13.00;;;;;;4920760;29;19919;-85
2022/08/08 12:39:54;;;;;;;;;;;45.80;13.20;;;;;;4902223;29;19927;-85
2022/08/08 12:42:19;;;;;;;;;;;45.90;13.30;;;;;;4890458;29;20395;-85
2022/08/08 12:44:45;;;;;;;;;;;46.00;13.40;;;;;;4891238;29;20307;-85
2022/08/08 12:47:11;;;;;;;;;;;45.60;13.40;;;;;;4910425;29;19934;-85
2022/08/08 12:49:37;;;;;;;;;;;44.80;13.50;;;;;;4897915;29;19919;-85
2022/08/08 12:52:03;;;;;;;;;;;44.00;14.00;;;;;;4915471;29;19958;-84
2022/08/08 12:54:31;;;;;;;;;;;43.30;14.30;;;;;;4898602;29;19973;-85
2022/08/08 12:56:57;;;;;;;;;;;42.50;14.70;;;;;;4914264;29;19926;-84
2022/08/08 12:59:23;;;;;;;;;;;42.00;15.10;;;;;;4915604;29;19911;-85
2022/08/08 13:01:59;;;;;;;;;;;41.40;15.40;;;;;;4911089;29;19942;-84
2022/08/08 13:04:26;;;;;;;;;;;40.80;15.70;;;;;;4896394;29;19923;-85
2022/08/08 13:06:56;;;;;;;;;;;40.20;16.20;;;;;;4884555;29;19962;-85
2022/08/08 13:09:37;;;;;;;;;;;39.80;16.60;;;;;;4914101;29;19919;-84
2022/08/08 13:12:15;;;;;;;;;;;39.30;17.00;;;;;;4892441;29;19919;-84
2022/08/08 13:14:47;;;;;;;;;;;39.00;17.50;;;;;;4896949;29;19998;-84
2022/08/08 13:17:13;;;;;;;;;;;38.80;17.70;;;;;;4896504;29;19979;-85
2022/08/08 13:19:39;;;;;;;;;;;38.60;17.80;;;;;;4879863;29;19924;-85
2022/08/08 13:22:05;;;;;;;;;;;38.40;17.90;;;;;;4908151;29;19915;-84
2022/08/08 13:24:34;;;;;;;;;;;38.20;18.00;;;;;;4915200;29;19923;-85
2022/08/08 13:27:04;;;;;;;;;;;38.10;18.10;;;;;;4920381;29;19915;-84
2022/08/08 13:29:30;;;;;;;;;;;38.10;18.20;;;;;;4893728;29;20379;-84
2022/08/08 13:31:59;;;;;;;;;;;38.00;18.30;;;;;;4885762;29;19925;-84
2022/08/08 13:34:25;;;;;;;;;;;38.00;18.40;;;;;;4897985;29;20059;-85
2022/08/08 13:36:51;;;;;;;;;;;37.90;18.50;;;;;;4892759;29;20395;-85
2022/08/08 13:39:17;;;;;;;;;;;37.60;18.70;;;;;;4888579;29;20537;-85
2022/08/08 13:41:43;;;;;;;;;;;37.20;19.00;;;;;;4894319;29;19924;-86
2022/08/08 13:44:09;;;;;;;;;;;36.70;19.20;;;;;;4902490;29;20448;-85
2022/08/08 13:46:34;;;;;;;;;;;36.30;19.70;;;;;;4924125;29;19919;-84
2022/08/08 13:49:00;;;;;;;;;;;36.00;19.80;;;;;;4888254;29;20376;-85
2022/08/08 13:51:25;;;;;;;;;;;35.70;20.10;;;;;;4901324;29;20279;-85
2022/08/08 13:53:52;;;;;;;;;;;35.50;20.30;;;;;;4912184;29;19923;-84
2022/08/08 13:56:35;;;;;;;;;;;35.30;20.40;;;;;;4900604;29;20024;-85
2022/08/08 13:59:02;;;;;;;;;;;35.20;20.30;;;;;;4886859;29;20249;-86
2022/08/08 14:01:29;;;;;;;;;;;35.10;20.50;;;;;;4892627;29;19931;-85
2022/08/08 14:03:55;;;;;;;;;;;35.00;20.40;;;;;;4918895;29;19931;-85
2022/08/08 14:06:20;;;;;;;;;;;35.00;20.60;;;;;;4900873;29;19912;-85
2022/08/08 14:08:47;;;;;;;;;;;35.00;20.60;;;;;;4882878;29;19919;-84
2022/08/08 14:11:19;;;;;;;;;;;34.90;20.60;;;;;;4886650;29;19914;-85
2022/08/08 14:13:45;;;;;;;;;;;34.80;20.70;;;;;;4916084;29;19915;-85
2022/08/08 14:16:12;;;;;;;;;;;34.90;20.80;;;;;;4905643;29;19919;-84
2022/08/08 14:18:47;;;;;;;;;;;34.90;20.80;;;;;;4909220;29;19926;-84
2022/08/08 14:21:13;;;;;;;;;;;34.90;20.90;;;;;;4908147;29;19938;-85
2022/08/08 14:23:41;;;;;;;;;;;34.80;20.90;;;;;;4907249;29;19916;-85
2022/08/08 14:26:07;;;;;;;;;;;34.60;21.20;;;;;;4896550;29;19915;-84
2022/08/08 14:28:32;;;;;;;;;;;34.50;21.50;;;;;;4888468;29;20010;-84
2022/08/08 14:31:08;;;;;;;;;;;34.30;21.50;;;;;;4911900;29;19915;-85
2022/08/08 14:33:33;;;;;;;;;;;34.10;21.70;;;;;;4915739;29;19927;-85
2022/08/08 14:36:02;;;;;;;;;;;33.90;21.90;;;;;;4898624;29;19923;-83